Time;durP1;ratioP1;P1;durP2;ratioP2;P2;SDS_P1;SDS_P2;PMS_P1;PMS_P2;Temp;Humidity;BMP_temperature;BMP_pressure;BME280_temperature;BME280_humidity;BME280_pressure;Samples;Min_cycle;Max_cycle;Signal;HPM_P1;HPM_P2
2022/05/04 00:00:20;;;;;;;9.67;2.00;;;11.00;70.60;;;;;;5054034;28;20098;-81
2022/05/04 00:02:45;;;;;;;8.37;2.20;;;11.00;70.00;;;;;;5054489;28;20036;-81
2022/05/04 00:05:11;;;;;;;8.70;1.80;;;11.00;70.10;;;;;;5054177;28;20029;-81
2022/05/04 00:07:37;;;;;;;9.67;1.67;;;11.00;70.10;;;;;;5054171;28;20100;-82
2022/05/04 00:10:04;;;;;;;8.27;2.20;;;11.00;70.00;;;;;;5054061;28;20024;-81
2022/05/04 00:12:30;;;;;;;4.70;1.70;;;11.00;70.10;;;;;;5036143;28;20025;-81
2022/05/04 00:14:55;;;;;;;10.30;2.00;;;11.00;70.10;;;;;;5036368;28;20055;-81
2022/05/04 00:17:21;;;;;;;7.73;2.27;;;11.00;70.10;;;;;;5054011;28;20167;-81
2022/05/04 00:19:47;;;;;;;8.70;1.70;;;11.00;70.00;;;;;;5036015;28;20021;-82
2022/05/04 00:22:18;;;;;;;9.77;1.90;;;11.00;70.00;;;;;;5036742;28;20380;-82
2022/05/04 00:24:44;;;;;;;7.33;1.80;;;11.00;70.00;;;;;;5053757;28;20094;-81
2022/05/04 00:27:10;;;;;;;11.30;2.40;;;11.00;70.00;;;;;;5053879;28;20385;-82
2022/05/04 00:29:35;;;;;;;10.13;2.27;;;11.00;70.00;;;;;;5052517;28;20029;-81
2022/05/04 00:32:01;;;;;;;8.57;1.87;;;11.00;70.00;;;;;;5053747;28;20029;-81
2022/05/04 00:34:26;;;;;;;6.23;1.93;;;10.90;69.90;;;;;;5035997;28;20440;-81
2022/05/04 00:36:52;;;;;;;7.57;1.77;;;10.90;70.00;;;;;;5052354;28;20033;-80
2022/05/04 00:39:18;;;;;;;6.23;1.80;;;10.90;70.10;;;;;;5052217;28;20025;-81
2022/05/04 00:41:43;;;;;;;9.90;2.13;;;10.90;70.20;;;;;;5053673;28;20081;-81
2022/05/04 00:44:09;;;;;;;8.80;2.63;;;10.90;70.30;;;;;;5053652;28;20021;-81
2022/05/04 00:46:34;;;;;;;7.50;2.00;;;11.00;70.50;;;;;;5053586;28;20508;-81
2022/05/04 00:49:00;;;;;;;7.70;2.20;;;10.90;70.60;;;;;;5036004;28;20029;-80
2022/05/04 00:51:27;;;;;;;6.93;1.97;;;10.80;70.60;;;;;;5035497;28;20108;-80
2022/05/04 00:53:53;;;;;;;10.80;2.20;;;10.80;70.70;;;;;;5035538;28;20021;-80
2022/05/04 00:56:19;;;;;;;8.13;1.53;;;10.90;70.80;;;;;;5053388;28;20022;-80
2022/05/04 00:58:57;;;;;;;9.60;2.00;;;10.90;70.90;;;;;;5018753;28;20025;-80
2022/05/04 01:01:26;;;;;;;6.03;1.50;;;10.80;71.00;;;;;;5053539;28;20068;-81
2022/05/04 01:03:52;;;;;;;6.70;1.90;;;10.80;70.90;;;;;;5053351;28;20492;-81
2022/05/04 01:06:18;;;;;;;5.40;1.63;;;10.80;70.90;;;;;;5035712;28;20033;-81
2022/05/04 01:08:44;;;;;;;12.20;2.03;;;10.80;71.00;;;;;;5002616;28;20562;-81
2022/05/04 01:11:10;;;;;;;10.13;2.23;;;10.80;71.00;;;;;;5035591;28;20021;-81
2022/05/04 01:13:35;;;;;;;7.37;1.80;;;10.80;71.00;;;;;;5052818;28;20043;-81
2022/05/04 01:16:01;;;;;;;8.97;2.10;;;10.80;71.10;;;;;;5018851;28;20125;-80
2022/05/04 01:18:27;;;;;;;6.73;1.77;;;10.70;71.00;;;;;;5035139;28;20033;-81
2022/05/04 01:20:52;;;;;;;5.07;1.87;;;10.80;71.20;;;;;;5035204;28;20056;-80
2022/05/04 01:23:18;;;;;;;7.93;1.70;;;10.80;71.10;;;;;;5053138;28;20033;-80
2022/05/04 01:25:44;;;;;;;6.30;1.67;;;10.70;71.00;;;;;;5053046;28;20029;-80
2022/05/04 01:28:10;;;;;;;7.57;2.40;;;10.70;71.00;;;;;;5052925;28;20078;-80
2022/05/04 01:30:36;;;;;;;8.10;2.20;;;10.70;71.00;;;;;;5018818;28;20116;-80
2022/05/04 01:33:02;;;;;;;10.33;2.03;;;10.70;71.00;;;;;;5052978;28;20159;-80
2022/05/04 01:35:28;;;;;;;10.63;2.97;;;10.70;71.20;;;;;;5051828;28;20021;-80
2022/05/04 01:37:53;;;;;;;7.63;1.93;;;10.70;71.00;;;;;;5053058;28;20635;-80
2022/05/04 01:40:19;;;;;;;9.80;2.10;;;10.70;71.00;;;;;;5052873;28;20118;-80
2022/05/04 01:42:45;;;;;;;8.87;2.37;;;10.80;71.00;;;;;;5051814;28;20128;-81
2022/05/04 01:45:11;;;;;;;9.67;1.90;;;10.70;71.60;;;;;;5002352;28;20052;-81
2022/05/04 01:47:37;;;;;;;11.27;2.13;;;10.70;71.00;;;;;;5053266;28;20021;-80
2022/05/04 01:50:06;;;;;;;8.47;2.23;;;10.70;71.00;;;;;;5052851;28;20100;-81
2022/05/04 01:52:32;;;;;;;7.17;2.30;;;10.70;71.00;;;;;;5051618;28;20025;-81
2022/05/04 01:55:01;;;;;;;9.40;1.93;;;10.70;71.00;;;;;;5035018;28;20131;-81
2022/05/04 01:57:27;;;;;;;11.43;1.90;;;10.70;70.90;;;;;;5052728;28;20033;-81
2022/05/04 01:59:53;;;;;;;10.63;3.10;;;10.70;70.80;;;;;;5051238;28;20045;-81
2022/05/04 02:02:19;;;;;;;9.70;1.77;;;10.60;70.70;;;;;;5052319;28;20070;-81
2022/05/04 02:04:45;;;;;;;10.37;2.30;;;10.60;70.80;;;;;;5056488;28;20025;-82
2022/05/04 02:07:10;;;;;;;7.47;1.63;;;10.50;70.90;;;;;;5056418;28;20025;-81
2022/05/04 02:09:41;;;;;;;8.07;2.17;;;10.50;70.80;;;;;;5038671;28;20029;-82
2022/05/04 02:12:07;;;;;;;8.50;2.33;;;10.50;70.80;;;;;;5056604;28;20039;-80
2022/05/04 02:14:33;;;;;;;9.00;1.97;;;10.50;70.90;;;;;;5038327;28;20029;-81
2022/05/04 02:16:59;;;;;;;6.57;1.60;;;10.50;71.00;;;;;;5038294;28;20025;-81
2022/05/04 02:19:25;;;;;;;6.30;1.50;;;10.40;71.00;;;;;;5056136;28;20468;-81
2022/05/04 02:21:51;;;;;;;6.23;1.83;;;10.40;70.90;;;;;;5056142;28;20083;-81
2022/05/04 02:24:17;;;;;;;6.30;2.00;;;10.40;71.10;;;;;;5056118;28;20025;-81
2022/05/04 02:26:43;;;;;;;12.37;2.13;;;10.40;71.20;;;;;;5054810;28;20495;-81
2022/05/04 02:29:08;;;;;;;7.83;1.60;;;10.40;71.20;;;;;;5055990;28;20029;-81
2022/05/04 02:31:34;;;;;;;5.70;2.30;;;10.30;71.50;;;;;;5038345;28;20025;-81
2022/05/04 02:34:00;;;;;;;7.47;1.70;;;10.30;71.50;;;;;;5038057;28;20013;-81
2022/05/04 02:39:09;;;;;;;12.57;2.03;;;10.30;71.60;;;;;;5056098;28;20094;-80
2022/05/04 02:41:35;;;;;;;13.33;2.07;;;10.30;71.50;;;;;;5038332;28;20413;-81
2022/05/04 02:44:03;;;;;;;9.70;1.97;;;10.30;71.60;;;;;;5038128;28;20428;-81
2022/05/04 02:46:30;;;;;;;9.63;2.40;;;10.30;71.70;;;;;;5054417;28;20503;-81
2022/05/04 02:48:56;;;;;;;12.90;2.70;;;10.20;72.30;;;;;;5037750;28;20028;-81
2022/05/04 02:51:22;;;;;;;9.47;2.67;;;10.20;71.80;;;;;;5037912;28;20466;-81
2022/05/04 02:53:48;;;;;;;8.67;2.03;;;10.20;72.00;;;;;;5021255;28;20021;-80
2022/05/04 02:56:15;;;;;;;6.93;2.13;;;10.20;72.00;;;;;;5055482;28;20416;-81
2022/05/04 02:58:42;;;;;;;14.23;2.67;;;10.20;72.10;;;;;;5037796;28;20032;-79
2022/05/04 03:03:59;;;;;;;11.97;3.20;;;10.20;72.20;;;;;;5055666;28;20095;-80
2022/05/04 03:06:25;;;;;;;12.83;2.90;;;10.20;72.30;;;;;;5055319;28;20028;-80
2022/05/04 03:08:51;;;;;;;12.40;2.50;;;10.20;72.40;;;;;;5055356;28;20533;-80
2022/05/04 03:14:01;;;;;;;9.27;2.43;;;10.10;72.40;;;;;;5040029;28;20106;-80
2022/05/04 03:16:27;;;;;;;9.77;2.13;;;10.10;72.60;;;;;;5053853;28;20021;-80
2022/05/04 03:18:52;;;;;;;13.03;2.30;;;10.10;72.70;;;;;;5020705;28;20021;-80
2022/05/04 03:21:18;;;;;;;7.87;2.20;;;10.00;72.60;;;;;;5055023;28;20370;-80
2022/05/04 03:23:43;;;;;;;8.87;2.40;;;10.00;72.80;;;;;;5055210;28;20052;-80
2022/05/04 03:26:09;;;;;;;7.53;1.93;;;10.00;72.90;;;;;;5053713;28;20379;-80
2022/05/04 03:28:35;;;;;;;8.70;2.10;;;9.90;72.90;;;;;;5037356;28;20495;-80
2022/05/04 03:31:01;;;;;;;9.37;2.40;;;9.90;73.10;;;;;;5036999;28;20025;-81
2022/05/04 03:33:27;;;;;;;8.03;2.13;;;9.90;73.10;;;;;;5054891;28;20033;-80
2022/05/04 03:35:54;;;;;;;9.90;2.03;;;9.90;73.10;;;;;;5054789;28;20025;-81
2022/05/04 03:38:19;;;;;;;11.57;2.57;;;9.90;73.20;;;;;;5054755;28;20025;-80
2022/05/04 03:40:45;;;;;;;6.93;2.57;;;9.80;73.10;;;;;;5036891;28;20033;-80
2022/05/04 03:43:11;;;;;;;7.43;2.40;;;9.80;73.20;;;;;;5053371;28;20115;-80
2022/05/04 03:45:36;;;;;;;10.07;1.97;;;9.80;73.30;;;;;;5055102;28;20400;-80
2022/05/04 03:48:02;;;;;;;11.77;3.20;;;9.80;73.40;;;;;;5036763;28;20033;-80
2022/05/04 03:50:28;;;;;;;13.97;2.57;;;9.80;73.50;;;;;;5036726;28;20473;-80
2022/05/04 03:52:53;;;;;;;8.20;1.97;;;9.80;73.50;;;;;;5053022;28;20425;-80
2022/05/04 03:55:19;;;;;;;12.70;2.90;;;9.70;73.50;;;;;;5003649;28;20033;-80
2022/05/04 03:57:44;;;;;;;7.63;2.47;;;9.70;73.50;;;;;;5036637;28;20473;-80
2022/05/04 04:00:11;;;;;;;9.10;3.47;;;9.70;73.70;;;;;;5019802;28;20052;-80
2022/05/04 04:02:36;;;;;;;8.93;2.33;;;9.80;73.80;;;;;;5052967;28;20048;-80
2022/05/04 04:05:02;;;;;;;11.17;1.90;;;9.80;74.40;;;;;;5036713;28;20470;-80
2022/05/04 04:07:28;;;;;;;9.07;2.23;;;9.70;73.60;;;;;;5054156;28;20489;-81
2022/05/04 04:09:54;;;;;;;9.63;1.63;;;9.70;73.70;;;;;;5054350;28;20439;-81
2022/05/04 04:12:19;;;;;;;6.93;2.10;;;9.60;73.70;;;;;;5052686;28;20029;-81
2022/05/04 04:14:45;;;;;;;8.73;2.23;;;9.60;73.70;;;;;;5003447;28;20465;-81
2022/05/04 04:17:10;;;;;;;8.23;2.13;;;9.70;73.70;;;;;;5053922;28;20131;-81
2022/05/04 04:19:36;;;;;;;4.77;1.93;;;9.70;73.70;;;;;;5019548;28;20043;-81
2022/05/04 04:22:02;;;;;;;8.97;2.40;;;9.60;73.70;;;;;;5036302;28;20090;-81
2022/05/04 04:24:28;;;;;;;8.13;2.10;;;9.60;73.70;;;;;;5038016;28;20064;-81
2022/05/04 04:26:54;;;;;;;8.47;2.03;;;9.70;73.50;;;;;;5073423;28;20029;-81
2022/05/04 04:29:20;;;;;;;7.60;1.90;;;9.60;73.40;;;;;;5055742;28;20029;-80
2022/05/04 04:31:45;;;;;;;13.30;2.87;;;9.60;73.30;;;;;;5073598;28;20111;-80
2022/05/04 04:34:11;;;;;;;8.00;2.00;;;9.60;73.30;;;;;;5073695;28;20036;-80
2022/05/04 04:36:37;;;;;;;8.63;2.00;;;9.60;73.20;;;;;;5055684;28;20040;-80
2022/05/04 04:39:03;;;;;;;10.63;1.90;;;9.50;73.10;;;;;;5073572;28;20037;-81
2022/05/04 04:41:29;;;;;;;14.10;2.23;;;9.50;73.10;;;;;;5055506;28;20119;-80
2022/05/04 04:43:55;;;;;;;10.40;2.37;;;9.50;73.20;;;;;;5039105;28;20054;-80
2022/05/04 04:46:20;;;;;;;8.13;2.10;;;9.50;73.30;;;;;;5055575;28;20582;-80
2022/05/04 04:48:46;;;;;;;7.47;2.20;;;9.40;73.20;;;;;;5055469;28;20028;-80
2022/05/04 04:51:12;;;;;;;9.83;2.50;;;9.40;73.30;;;;;;5055992;28;20500;-80
2022/05/04 04:53:38;;;;;;;9.90;1.70;;;9.40;73.30;;;;;;5039379;28;20463;-80
2022/05/04 04:56:04;;;;;;;9.97;2.10;;;9.40;73.20;;;;;;5038862;28;20115;-80
2022/05/04 04:58:30;;;;;;;10.73;2.07;;;9.40;73.30;;;;;;5073310;28;20036;-80
2022/05/04 05:00:57;;;;;;;9.03;1.90;;;9.30;73.10;;;;;;5073045;28;20131;-81
2022/05/04 05:03:22;;;;;;;10.03;2.50;;;9.30;73.20;;;;;;5073279;28;20024;-80
2022/05/04 05:05:48;;;;;;;6.30;2.00;;;9.30;73.10;;;;;;5073702;28;20032;-81
2022/05/04 05:08:14;;;;;;;8.13;2.20;;;9.30;73.10;;;;;;5073218;28;20465;-80
2022/05/04 05:10:39;;;;;;;10.23;2.33;;;9.40;73.30;;;;;;5073218;28;20154;-80
2022/05/04 05:13:05;;;;;;;10.80;2.37;;;9.30;73.10;;;;;;5055334;28;20036;-81
2022/05/04 05:18:18;;;;;;;11.13;1.83;;;9.30;73.10;;;;;;5073089;28;20178;-82
2022/05/04 05:20:43;;;;;;;11.00;2.60;;;9.30;73.10;;;;;;5038643;28;20536;-80
2022/05/04 05:23:09;;;;;;;7.90;2.00;;;9.20;73.00;;;;;;5038573;28;20028;-81
2022/05/04 05:25:35;;;;;;;11.57;3.33;;;9.30;72.90;;;;;;5038522;28;20162;-81
2022/05/04 05:28:01;;;;;;;14.43;2.33;;;9.20;73.00;;;;;;5055095;28;20028;-80
2022/05/04 05:30:26;;;;;;;8.93;2.10;;;9.20;73.60;;;;;;5074281;28;20029;-81
2022/05/04 05:32:52;;;;;;;11.10;2.30;;;9.20;72.90;;;;;;5055307;28;20112;-80
2022/05/04 05:35:18;;;;;;;8.30;2.50;;;9.10;72.90;;;;;;5055006;28;20464;-81
2022/05/04 05:37:43;;;;;;;11.73;2.40;;;9.20;73.00;;;;;;5057983;28;20097;-82
2022/05/04 05:40:10;;;;;;;10.73;2.10;;;9.20;73.00;;;;;;5085283;28;20357;-81
2022/05/04 05:42:35;;;;;;;7.87;2.10;;;9.20;73.00;;;;;;5076549;28;20480;-81
2022/05/04 05:45:01;;;;;;;6.17;2.30;;;9.20;73.00;;;;;;5042546;28;20031;-81
2022/05/04 05:47:27;;;;;;;10.27;1.97;;;9.20;73.10;;;;;;5042233;28;20103;-81
2022/05/04 05:49:53;;;;;;;8.40;2.50;;;9.20;73.00;;;;;;5072170;28;20115;-81
2022/05/04 05:52:19;;;;;;;8.33;2.57;;;9.30;72.90;;;;;;5097046;28;20060;-81
2022/05/04 05:54:44;;;;;;;12.80;2.37;;;9.30;73.00;;;;;;5045617;28;20153;-81
2022/05/04 05:57:10;;;;;;;6.33;1.63;;;9.30;72.90;;;;;;5045574;28;20028;-82
2022/05/04 05:59:36;;;;;;;8.70;2.90;;;9.30;72.80;;;;;;5062015;28;20381;-82
2022/05/04 06:02:01;;;;;;;9.23;2.30;;;9.30;72.90;;;;;;5078756;28;20021;-81
2022/05/04 06:04:27;;;;;;;7.60;2.40;;;9.40;72.90;;;;;;5084943;28;20025;-81
2022/05/04 06:06:54;;;;;;;9.07;2.00;;;9.40;72.80;;;;;;5049717;28;20048;-81
2022/05/04 06:09:19;;;;;;;10.43;2.20;;;9.30;72.80;;;;;;5076002;28;20066;-81
2022/05/04 06:11:45;;;;;;;9.77;3.10;;;9.40;72.80;;;;;;5047169;28;20112;-74
2022/05/04 06:14:11;;;;;;;9.70;2.10;;;9.40;72.80;;;;;;5042741;28;20036;-74
2022/05/04 06:16:37;;;;;;;13.27;2.53;;;9.40;72.70;;;;;;5076175;28;20029;-74
2022/05/04 06:19:03;;;;;;;8.70;2.17;;;9.50;72.70;;;;;;5075599;28;20024;-74
2022/05/04 06:21:29;;;;;;;11.20;2.23;;;9.50;72.90;;;;;;5065739;28;20035;-74
2022/05/04 06:23:55;;;;;;;9.80;1.87;;;9.50;72.80;;;;;;5074955;28;20016;-74
2022/05/04 06:26:23;;;;;;;7.67;2.07;;;9.60;72.80;;;;;;5039149;28;20361;-74
2022/05/04 06:28:48;;;;;;;7.10;1.80;;;9.60;72.60;;;;;;5031963;28;20020;-74
2022/05/04 06:34:08;;;;;;;;;;;9.60;72.50;;;;;;5075645;28;20389;-74
2022/05/04 06:36:34;;;;;;;;;;;9.80;72.50;;;;;;5043202;28;19912;-74
2022/05/04 06:39:00;;;;;;;9.57;1.97;;;9.70;72.30;;;;;;5076246;28;19904;-74
2022/05/04 06:41:27;;;;;;;9.37;2.43;;;9.70;72.30;;;;;;5058034;28;20033;-72
2022/05/04 06:43:52;;;;;;;8.40;2.07;;;9.80;72.20;;;;;;5076019;28;20020;-74
2022/05/04 06:46:18;;;;;;;6.43;1.40;;;9.80;72.10;;;;;;5057723;28;20032;-72
2022/05/04 06:48:45;;;;;;;6.67;2.00;;;9.90;72.20;;;;;;5057593;28;20101;-75
2022/05/04 06:51:11;;;;;;;6.47;1.50;;;9.90;72.00;;;;;;5025356;28;20471;-74
2022/05/04 06:53:37;;;;;;;11.10;1.70;;;9.90;71.90;;;;;;5075806;28;20029;-75
2022/05/04 06:56:03;;;;;;;8.97;1.37;;;9.90;71.70;;;;;;5058005;28;20369;-74
2022/05/04 06:58:28;;;;;;;11.53;1.57;;;10.00;71.50;;;;;;5075681;28;20469;-76
2022/05/04 07:00:54;;;;;;;8.70;1.83;;;10.10;71.40;;;;;;5040597;28;20048;-74
2022/05/04 07:03:22;;;;;;;8.83;1.77;;;10.10;71.00;;;;;;5057683;28;20044;-73
2022/05/04 07:05:49;;;;;;;5.20;1.27;;;10.20;71.20;;;;;;5075810;28;20067;-75
2022/05/04 07:08:14;;;;;;;7.87;1.40;;;10.20;71.20;;;;;;5040858;28;20023;-74
2022/05/04 07:10:40;;;;;;;10.73;1.97;;;10.20;71.20;;;;;;5075182;28;20020;-74
2022/05/04 07:13:06;;;;;;;5.80;1.47;;;10.20;71.20;;;;;;5075120;28;20028;-74
2022/05/04 07:15:33;;;;;;;8.87;1.50;;;10.30;71.00;;;;;;5080294;28;20031;-74
2022/05/04 07:17:58;;;;;;;6.23;1.43;;;10.30;70.80;;;;;;5062381;28;20031;-74
2022/05/04 07:20:24;;;;;;;6.43;1.67;;;10.30;70.80;;;;;;5057527;28;20029;-74
2022/05/04 07:22:50;;;;;;;9.20;1.83;;;10.40;70.80;;;;;;5074922;28;20468;-74
2022/05/04 07:25:16;;;;;;;5.77;1.57;;;10.40;70.80;;;;;;5057107;28;20035;-74
2022/05/04 07:27:41;;;;;;;7.20;1.80;;;10.60;70.60;;;;;;5057003;28;20025;-72
2022/05/04 07:30:08;;;;;;;6.10;1.60;;;10.60;70.90;;;;;;5075142;28;20028;-72
2022/05/04 07:32:33;;;;;;;6.90;1.77;;;10.60;70.60;;;;;;5056733;28;20020;-72
2022/05/04 07:34:59;;;;;;;5.70;1.30;;;10.80;70.50;;;;;;5074886;28;20428;-72
2022/05/04 07:37:25;;;;;;;5.13;1.70;;;10.70;70.30;;;;;;5074844;28;20115;-72
2022/05/04 07:42:35;;;;;;;8.23;1.42;;;10.80;70.40;;;;;;5074708;28;20090;-72
2022/05/04 07:45:02;;;;;;;7.03;1.57;;;10.80;70.20;;;;;;5040021;28;20036;-72
2022/05/04 07:47:30;;;;;;;7.10;1.80;;;10.80;70.10;;;;;;5074609;28;20032;-72
2022/05/04 07:49:56;;;;;;;6.47;1.58;;;10.90;69.90;;;;;;5056509;28;20187;-73
2022/05/04 07:52:23;;;;;;;4.47;1.30;;;10.90;69.60;;;;;;5074480;28;20035;-74
2022/05/04 07:54:48;;;;;;;4.83;1.20;;;10.90;69.30;;;;;;5040433;28;20073;-73
2022/05/04 07:57:15;;;;;;;8.27;1.83;;;11.00;69.20;;;;;;5039680;28;20064;-73
2022/05/04 07:59:40;;;;;;;7.13;2.03;;;11.00;68.90;;;;;;5073241;28;20098;-73
2022/05/04 08:04:50;;;;;;;8.88;2.13;;;11.10;69.00;;;;;;5074618;28;20500;-73
2022/05/04 08:07:17;;;;;;;5.60;1.77;;;11.10;68.80;;;;;;5074002;28;20032;-73
2022/05/04 08:09:43;;;;;;;8.13;1.80;;;11.10;68.60;;;;;;5073828;28;20033;-73
2022/05/04 08:12:11;;;;;;;8.23;1.63;;;11.10;68.60;;;;;;5056154;28;20512;-73
2022/05/04 08:14:40;;;;;;;7.13;2.37;;;11.20;68.60;;;;;;5073962;28;20032;-73
2022/05/04 08:17:07;;;;;;;5.28;1.73;;;11.20;68.40;;;;;;5040103;28;20622;-72
2022/05/04 08:19:33;;;;;;;6.10;1.85;;;11.30;68.40;;;;;;5055921;28;20043;-73
2022/05/04 08:21:59;;;;;;;9.32;2.38;;;11.30;68.30;;;;;;5073759;28;20048;-73
2022/05/04 08:24:25;;;;;;;8.05;1.88;;;11.40;68.20;;;;;;5039392;28;20062;-73
2022/05/04 08:26:51;;;;;;;8.82;2.47;;;11.40;68.20;;;;;;5073687;28;20028;-73
2022/05/04 08:29:16;;;;;;;6.28;1.73;;;11.50;68.30;;;;;;5055639;28;20516;-73
2022/05/04 08:31:42;;;;;;;8.02;2.03;;;11.60;68.40;;;;;;5055870;28;20064;-73
2022/05/04 08:34:08;;;;;;;7.90;1.90;;;11.60;68.60;;;;;;5056261;28;20090;-72
2022/05/04 08:36:37;;;;;;;5.90;2.05;;;11.70;69.30;;;;;;5022700;28;20496;-72
2022/05/04 08:39:05;;;;;;;11.55;4.63;;;11.80;68.60;;;;;;5073540;28;20189;-74
2022/05/04 08:41:33;;;;;;;10.00;3.47;;;11.90;68.30;;;;;;5074010;28;20032;-73
2022/05/04 08:44:01;;;;;;;11.50;2.70;;;12.00;68.10;;;;;;5055696;28;20031;-74
2022/05/04 08:46:28;;;;;;;7.25;2.40;;;12.10;67.60;;;;;;5055674;28;20029;-73
2022/05/04 08:48:54;;;;;;;6.18;2.03;;;12.20;67.20;;;;;;5056116;28;20032;-73
2022/05/04 08:51:20;;;;;;;6.57;2.10;;;12.20;67.20;;;;;;5055582;28;20028;-72
2022/05/04 08:53:46;;;;;;;5.15;1.90;;;12.30;67.10;;;;;;5073608;28;20119;-73
2022/05/04 08:56:13;;;;;;;10.52;2.80;;;12.40;67.20;;;;;;5038898;28;20036;-73
2022/05/04 08:58:40;;;;;;;7.03;2.33;;;12.50;66.90;;;;;;5055893;28;20029;-74
2022/05/04 09:01:05;;;;;;;7.38;1.63;;;12.60;66.50;;;;;;5073242;28;20040;-74
2022/05/04 09:03:34;;;;;;;6.15;2.35;;;12.60;66.20;;;;;;5055247;28;20020;-74
2022/05/04 09:06:00;;;;;;;6.13;1.42;;;12.70;65.70;;;;;;5073213;28;20024;-75
2022/05/04 09:08:26;;;;;;;5.38;1.48;;;12.70;65.60;;;;;;5038970;28;20078;-74
2022/05/04 09:10:52;;;;;;;4.38;1.50;;;12.80;65.40;;;;;;5055195;28;20028;-75
2022/05/04 09:13:18;;;;;;;8.32;1.70;;;13.00;65.50;;;;;;5055222;28;20021;-74
2022/05/04 09:15:44;;;;;;;7.78;1.52;;;13.00;65.10;;;;;;5073206;28;20077;-75
2022/05/04 09:18:16;;;;;;;5.38;1.83;;;13.10;64.90;;;;;;5055195;28;20032;-74
2022/05/04 09:20:59;;;;;;;6.82;1.60;;;13.20;64.30;;;;;;5055073;28;20021;-74
2022/05/04 09:23:29;;;;;;;5.18;1.40;;;13.20;64.10;;;;;;5057156;28;20350;-75
2022/05/04 09:26:05;;;;;;;5.30;1.60;;;13.30;64.00;;;;;;5073215;28;20028;-79
2022/05/04 09:28:30;;;;;;;7.03;1.70;;;13.30;63.50;;;;;;5073067;28;20479;-75
2022/05/04 09:31:04;;;;;;;5.60;1.40;;;13.40;63.60;;;;;;5038598;28;20110;-75
2022/05/04 09:33:33;;;;;;;8.73;3.05;;;13.40;63.40;;;;;;5073074;28;20366;-75
2022/05/04 09:36:03;;;;;;;6.13;1.85;;;13.50;63.00;;;;;;5073074;28;20021;-77
2022/05/04 09:46:46;;;;;;;10.63;2.78;;;13.90;62.00;;;;;;5073373;28;20028;-74
2022/05/04 09:49:21;;;;;;;6.82;2.75;;;13.90;61.70;;;;;;5072518;28;20028;-74
2022/05/04 09:51:53;;;;;;;7.38;2.85;;;13.90;61.70;;;;;;5054962;28;20048;-74
2022/05/04 09:54:21;;;;;;;6.50;2.42;;;14.00;61.60;;;;;;5054744;28;20481;-74
2022/05/04 09:56:49;;;;;;;9.68;2.50;;;14.10;61.70;;;;;;5054934;28;20078;-74
2022/05/04 09:59:16;;;;;;;8.57;2.40;;;14.20;61.30;;;;;;5072375;28;20519;-77
2022/05/04 10:01:43;;;;;;;10.18;2.33;;;14.40;61.20;;;;;;5073184;28;20485;-74
2022/05/04 10:04:10;;;;;;;9.35;2.60;;;14.50;60.70;;;;;;5038139;28;20109;-74
2022/05/04 10:06:36;;;;;;;7.03;2.10;;;14.50;60.30;;;;;;5072850;28;20052;-75
2022/05/04 10:09:06;;;;;;;7.85;2.40;;;14.60;60.30;;;;;;5054922;28;20024;-76
2022/05/04 10:11:35;;;;;;;12.10;2.55;;;14.70;59.90;;;;;;5072508;28;20029;-74
2022/05/04 10:14:14;;;;;;;9.27;2.45;;;14.80;59.70;;;;;;5038085;28;20056;-75
2022/05/04 10:16:41;;;;;;;7.15;2.67;;;15.00;59.50;;;;;;5055283;28;20391;-75
2022/05/04 10:19:15;;;;;;;8.40;3.20;;;15.10;59.50;;;;;;5054532;28;20028;-75
2022/05/04 10:21:43;;;;;;;9.38;2.83;;;15.30;59.50;;;;;;5055022;28;20035;-73
2022/05/04 10:24:10;;;;;;;11.23;3.40;;;15.60;59.40;;;;;;5056770;28;20036;-76
2022/05/04 10:26:37;;;;;;;8.07;3.13;;;15.80;58.40;;;;;;5057899;28;20020;-76
2022/05/04 10:32:31;;;;;;;6.90;2.47;;;16.30;57.20;;;;;;5076366;28;20160;-76
2022/05/04 10:35:15;;;;;;;11.00;3.55;;;16.90;56.80;;;;;;5075714;28;20103;-76
2022/05/04 10:37:59;;;;;;;7.07;2.63;;;17.30;55.80;;;;;;5058046;28;20024;-75
2022/05/04 10:40:26;;;;;;;8.65;2.47;;;17.60;56.00;;;;;;5075969;28;20027;-75
2022/05/04 10:42:55;;;;;;;7.03;2.88;;;18.10;55.80;;;;;;5076004;28;20477;-76
2022/05/04 10:45:42;;;;;;;10.07;2.22;;;18.70;54.70;;;;;;5057848;28;20025;-74
2022/05/04 10:48:20;;;;;;;7.43;2.90;;;19.30;53.70;;;;;;5057021;28;20057;-78
2022/05/04 10:51:08;;;;;;;8.45;2.80;;;20.00;52.40;;;;;;5057443;28;20028;-75
2022/05/04 10:53:35;;;;;;;8.38;2.50;;;20.40;51.40;;;;;;5075907;28;20089;-75
2022/05/04 10:56:01;;;;;;;4.80;2.67;;;21.00;51.50;;;;;;5076321;28;20107;-76
2022/05/04 10:58:34;;;;;;;4.28;2.13;;;21.60;49.90;;;;;;5057524;28;20116;-76
2022/05/04 11:01:06;;;;;;;;;;;22.10;49.10;;;;;;5054199;28;20059;-75
2022/05/04 11:03:36;;;;;;;7.07;1.60;;;22.70;49.60;;;;;;5054120;28;19912;-76
2022/05/04 11:06:09;;;;;;;10.88;2.30;;;23.30;49.00;;;;;;5054255;28;20033;-80
2022/05/04 11:08:36;;;;;;;8.05;2.50;;;23.80;46.00;;;;;;5054212;28;20040;-79
2022/05/04 11:11:03;;;;;;;5.80;2.55;;;24.00;44.70;;;;;;5055355;28;20028;-81
2022/05/04 11:13:30;;;;;;;6.60;2.05;;;24.20;43.90;;;;;;5053546;28;20033;-77
2022/05/04 11:15:59;;;;;;;9.02;2.60;;;24.50;43.60;;;;;;5053698;28;20054;-76
2022/05/04 11:18:25;;;;;;;5.75;1.65;;;24.80;43.10;;;;;;5055548;28;20028;-77
2022/05/04 11:20:51;;;;;;;11.20;2.88;;;25.20;42.60;;;;;;5037305;28;20037;-77
2022/05/04 11:23:25;;;;;;;6.65;2.63;;;25.30;41.80;;;;;;5053980;28;20021;-75
2022/05/04 11:25:51;;;;;;;6.32;2.25;;;25.50;40.50;;;;;;5037712;28;20023;-77
2022/05/04 11:28:24;;;;;;;7.95;2.70;;;25.70;41.00;;;;;;5053801;28;20469;-77
2022/05/04 11:30:54;;;;;;;7.28;2.55;;;26.00;40.20;;;;;;5053494;28;20029;-78
2022/05/04 11:33:20;;;;;;;5.63;2.30;;;26.20;39.70;;;;;;5053431;28;20033;-77
2022/05/04 11:35:55;;;;;;;8.05;2.63;;;26.40;39.10;;;;;;5036997;28;20047;-76
2022/05/04 11:38:21;;;;;;;6.55;2.13;;;26.50;38.40;;;;;;5053729;28;20537;-77
2022/05/04 11:40:49;;;;;;;6.35;2.60;;;26.70;38.60;;;;;;5053551;28;20108;-77
2022/05/04 11:43:21;;;;;;;8.05;2.33;;;27.00;38.30;;;;;;5053399;28;20103;-78
2022/05/04 11:45:48;;;;;;;7.03;2.97;;;27.20;37.60;;;;;;5054906;28;20114;-78
2022/05/04 11:48:17;;;;;;;7.38;2.72;;;27.40;37.50;;;;;;5037186;28;20040;-77
2022/05/04 11:50:43;;;;;;;8.05;2.78;;;27.60;37.20;;;;;;5054589;28;20029;-79
2022/05/04 11:53:09;;;;;;;7.40;2.42;;;27.90;36.80;;;;;;5020384;28;20036;-76
2022/05/04 11:55:35;;;;;;;7.32;3.00;;;27.90;36.00;;;;;;5036461;28;20056;-75
2022/05/04 11:58:00;;;;;;;5.65;2.75;;;27.90;36.10;;;;;;5054932;28;20090;-77
2022/05/04 12:00:27;;;;;;;6.53;1.83;;;28.10;36.10;;;;;;5053126;28;20528;-78
2022/05/04 12:02:53;;;;;;;6.90;2.40;;;28.10;35.80;;;;;;5052993;28;20043;-77
2022/05/04 12:05:19;;;;;;;8.38;2.50;;;28.20;35.40;;;;;;5020094;28;20029;-76
2022/05/04 12:07:46;;;;;;;5.90;2.47;;;28.40;35.20;;;;;;5020184;28;20017;-78
2022/05/04 12:10:12;;;;;;;7.97;3.63;;;28.60;35.10;;;;;;5052851;28;20035;-81
2022/05/04 12:12:38;;;;;;;7.35;2.63;;;28.60;34.30;;;;;;5052819;28;20029;-79
2022/05/04 12:15:05;;;;;;;6.53;2.70;;;28.60;34.30;;;;;;5052671;28;20033;-75
2022/05/04 12:17:35;;;;;;;6.13;2.80;;;28.70;34.10;;;;;;5053157;28;20029;-76
2022/05/04 12:20:02;;;;;;;8.38;3.25;;;29.10;33.70;;;;;;5052903;28;20108;-75
2022/05/04 12:22:28;;;;;;;8.75;2.80;;;29.50;33.40;;;;;;5052955;28;20033;-76
2022/05/04 12:24:54;;;;;;;6.25;2.88;;;29.60;33.20;;;;;;5052668;28;20139;-80
2022/05/04 12:27:20;;;;;;;8.77;2.75;;;29.80;32.80;;;;;;5035660;28;20477;-75
2022/05/04 12:35:14;;;;;;;5.57;2.53;;;29.80;31.70;;;;;;5054364;28;20154;-80
2022/05/04 12:37:39;;;;;;;5.85;2.40;;;29.70;31.40;;;;;;5035862;28;20510;-79
2022/05/04 12:40:05;;;;;;;6.63;2.85;;;29.70;31.50;;;;;;5019364;28;20029;-76
2022/05/04 12:42:31;;;;;;;4.75;2.40;;;29.80;31.50;;;;;;5019321;28;20053;-78
2022/05/04 12:44:59;;;;;;;5.25;2.80;;;30.00;31.50;;;;;;5035759;28;20035;-75
2022/05/04 12:47:25;;;;;;;6.45;2.00;;;30.10;31.30;;;;;;5035164;28;20052;-81
2022/05/04 12:49:50;;;;;;;6.70;2.75;;;30.30;31.50;;;;;;5052374;28;20446;-76
2022/05/04 12:52:17;;;;;;;8.55;2.55;;;30.50;31.60;;;;;;5035615;28;20037;-77
2022/05/04 12:54:43;;;;;;;7.10;2.53;;;30.60;31.30;;;;;;5019387;28;20025;-76
2022/05/04 12:57:08;;;;;;;6.03;2.33;;;30.50;30.50;;;;;;5036272;28;20366;-81
2022/05/04 12:59:34;;;;;;;6.47;2.40;;;30.50;30.50;;;;;;5051918;28;20128;-79
2022/05/04 13:02:00;;;;;;;9.60;2.08;;;30.60;30.60;;;;;;5035676;28;20108;-77
2022/05/04 13:04:26;;;;;;;7.88;2.92;;;30.70;30.40;;;;;;5019730;28;20037;-75
2022/05/04 13:06:52;;;;;;;7.50;2.08;;;30.90;30.40;;;;;;5035884;28;20028;-76
2022/05/04 13:09:17;;;;;;;7.72;2.40;;;31.20;30.30;;;;;;5052280;28;20060;-79
2022/05/04 13:11:43;;;;;;;29.90;4.00;;;31.30;29.90;;;;;;5053070;28;20164;-76
2022/05/04 13:14:09;;;;;;;8.38;2.50;;;31.40;29.90;;;;;;5053392;28;20033;-78
2022/05/04 13:16:36;;;;;;;6.03;2.08;;;31.60;29.90;;;;;;5052285;28;20022;-80
2022/05/04 13:19:04;;;;;;;5.35;2.30;;;31.70;29.80;;;;;;5053073;28;20041;-76
2022/05/04 13:21:30;;;;;;;7.70;2.60;;;31.70;29.60;;;;;;5051810;28;20393;-78